sensor_id;sensor_type;location;lat;lon;timestamp;temperature;humidity
63202;DHT22;49296;48.188;11.566;2023-04-24T00:00:40;12.49;76.69
63202;DHT22;49296;48.188;11.566;2023-04-24T00:03:08;12.46;76.98
63202;DHT22;49296;48.188;11.566;2023-04-24T00:05:36;12.42;76.84
63202;DHT22;49296;48.188;11.566;2023-04-24T00:08:03;12.31;76.86
63202;DHT22;49296;48.188;11.566;2023-04-24T00:10:29;12.28;76.90
63202;DHT22;49296;48.188;11.566;2023-04-24T00:12:56;12.22;77.24
63202;DHT22;49296;48.188;11.566;2023-04-24T00:15:23;12.22;77.24
63202;DHT22;49296;48.188;11.566;2023-04-24T00:17:50;12.13;77.49
63202;DHT22;49296;48.188;11.566;2023-04-24T00:20:17;12.14;77.25
63202;DHT22;49296;48.188;11.566;2023-04-24T00:22:45;12.24;77.21
63202;DHT22;49296;48.188;11.566;2023-04-24T00:25:12;12.32;76.53
63202;DHT22;49296;48.188;11.566;2023-04-24T00:27:39;12.18;76.65
63202;DHT22;49296;48.188;11.566;2023-04-24T00:30:07;12.13;76.71
63202;DHT22;49296;48.188;11.566;2023-04-24T00:32:34;12.17;76.40
63202;DHT22;49296;48.188;11.566;2023-04-24T00:35:01;12.05;76.65
63202;DHT22;49296;48.188;11.566;2023-04-24T00:37:28;11.98;76.96
63202;DHT22;49296;48.188;11.566;2023-04-24T00:39:56;11.98;77.24
63202;DHT22;49296;48.188;11.566;2023-04-24T00:42:23;11.93;77.06
63202;DHT22;49296;48.188;11.566;2023-04-24T00:44:50;11.95;77.18
63202;DHT22;49296;48.188;11.566;2023-04-24T00:47:19;12.04;76.83
63202;DHT22;49296;48.188;11.566;2023-04-24T00:49:47;12.00;76.74
63202;DHT22;49296;48.188;11.566;2023-04-24T00:52:14;11.97;76.59
63202;DHT22;49296;48.188;11.566;2023-04-24T00:54:43;11.95;76.44
63202;DHT22;49296;48.188;11.566;2023-04-24T00:57:11;11.97;75.79
63202;DHT22;49296;48.188;11.566;2023-04-24T00:59:39;11.72;76.28
63202;DHT22;49296;48.188;11.566;2023-04-24T01:02:06;11.89;76.49
63202;DHT22;49296;48.188;11.566;2023-04-24T01:04:34;11.84;76.43
63202;DHT22;49296;48.188;11.566;2023-04-24T01:07:01;11.73;76.57
63202;DHT22;49296;48.188;11.566;2023-04-24T01:09:28;11.73;76.22
63202;DHT22;49296;48.188;11.566;2023-04-24T01:11:56;11.66;76.44
63202;DHT22;49296;48.188;11.566;2023-04-24T01:14:24;11.80;76.20
63202;DHT22;49296;48.188;11.566;2023-04-24T01:16:51;11.79;75.86
63202;DHT22;49296;48.188;11.566;2023-04-24T01:19:18;11.77;75.37
63202;DHT22;49296;48.188;11.566;2023-04-24T01:21:47;11.72;76.28
63202;DHT22;49296;48.188;11.566;2023-04-24T01:24:16;11.65;75.67
63202;DHT22;49296;48.188;11.566;2023-04-24T01:26:44;11.77;75.55
63202;DHT22;49296;48.188;11.566;2023-04-24T01:29:11;11.79;75.31
63202;DHT22;49296;48.188;11.566;2023-04-24T01:31:38;11.82;75.08
63202;DHT22;49296;48.188;11.566;2023-04-24T01:34:05;11.83;74.73
63202;DHT22;49296;48.188;11.566;2023-04-24T01:39:58;11.77;74.16
63202;DHT22;49296;48.188;11.566;2023-04-24T01:42:26;11.79;74.42
63202;DHT22;49296;48.188;11.566;2023-04-24T01:44:53;11.83;74.02
63202;DHT22;49296;48.188;11.566;2023-04-24T01:47:20;11.77;74.32
63202;DHT22;49296;48.188;11.566;2023-04-24T01:49:48;11.70;73.82
63202;DHT22;49296;48.188;11.566;2023-04-24T01:52:14;11.62;74.01
63202;DHT22;49296;48.188;11.566;2023-04-24T01:54:41;11.55;74.22
63202;DHT22;49296;48.188;11.566;2023-04-24T01:57:09;11.58;74.34
63202;DHT22;49296;48.188;11.566;2023-04-24T01:59:36;11.59;73.81
63202;DHT22;49296;48.188;11.566;2023-04-24T02:02:03;11.51;74.41
63202;DHT22;49296;48.188;11.566;2023-04-24T02:04:30;11.45;75.19
63202;DHT22;49296;48.188;11.566;2023-04-24T02:06:56;11.46;74.45
63202;DHT22;49296;48.188;11.566;2023-04-24T02:09:23;11.38;74.78
63202;DHT22;49296;48.188;11.566;2023-04-24T02:11:50;11.36;74.94
63202;DHT22;49296;48.188;11.566;2023-04-24T02:14:18;11.32;75.09
63202;DHT22;49296;48.188;11.566;2023-04-24T02:16:44;11.32;75.41
63202;DHT22;49296;48.188;11.566;2023-04-24T02:19:11;11.34;74.70
63202;DHT22;49296;48.188;11.566;2023-04-24T02:21:38;11.36;74.58
63202;DHT22;49296;48.188;11.566;2023-04-24T02:24:04;11.25;74.99
63202;DHT22;49296;48.188;11.566;2023-04-24T02:26:31;11.23;74.90
63202;DHT22;49296;48.188;11.566;2023-04-24T02:28:58;11.27;74.85
63202;DHT22;49296;48.188;11.566;2023-04-24T02:31:26;11.17;75.09
63202;DHT22;49296;48.188;11.566;2023-04-24T02:33:53;11.18;75.25
63202;DHT22;49296;48.188;11.566;2023-04-24T02:36:19;11.14;75.21
63202;DHT22;49296;48.188;11.566;2023-04-24T02:38:46;11.07;75.59
63202;DHT22;49296;48.188;11.566;2023-04-24T02:41:13;11.07;75.82
63202;DHT22;49296;48.188;11.566;2023-04-24T02:43:39;11.14;75.13
63202;DHT22;49296;48.188;11.566;2023-04-24T02:46:06;11.14;75.65
63202;DHT22;49296;48.188;11.566;2023-04-24T02:48:34;11.18;75.84
63202;DHT22;49296;48.188;11.566;2023-04-24T02:51:01;11.15;75.45
63202;DHT22;49296;48.188;11.566;2023-04-24T02:53:27;11.11;76.07
63202;DHT22;49296;48.188;11.566;2023-04-24T02:55:55;11.11;76.17
63202;DHT22;49296;48.188;11.566;2023-04-24T02:58:22;11.10;76.43
63202;DHT22;49296;48.188;11.566;2023-04-24T03:00:48;11.14;76.05
63202;DHT22;49296;48.188;11.566;2023-04-24T03:03:15;11.04;76.69
63202;DHT22;49296;48.188;11.566;2023-04-24T03:05:43;11.13;76.49
63202;DHT22;49296;48.188;11.566;2023-04-24T03:08:09;10.99;76.59
63202;DHT22;49296;48.188;11.566;2023-04-24T03:10:36;10.97;76.82
63202;DHT22;49296;48.188;11.566;2023-04-24T03:13:03;10.90;76.76
63202;DHT22;49296;48.188;11.566;2023-04-24T03:15:30;11.00;76.85
63202;DHT22;49296;48.188;11.566;2023-04-24T03:17:56;10.99;77.02
63202;DHT22;49296;48.188;11.566;2023-04-24T03:20:23;10.92;77.29
63202;DHT22;49296;48.188;11.566;2023-04-24T03:22:51;10.87;77.54
63202;DHT22;49296;48.188;11.566;2023-04-24T03:25:18;10.81;77.52
63202;DHT22;49296;48.188;11.566;2023-04-24T03:27:44;10.79;77.89
63202;DHT22;49296;48.188;11.566;2023-04-24T03:30:11;10.80;78.04
63202;DHT22;49296;48.188;11.566;2023-04-24T03:32:38;10.80;78.60
63202;DHT22;49296;48.188;11.566;2023-04-24T03:35:06;10.75;78.66
63202;DHT22;49296;48.188;11.566;2023-04-24T03:37:32;10.80;78.50
63202;DHT22;49296;48.188;11.566;2023-04-24T03:40:00;10.79;79.08
63202;DHT22;49296;48.188;11.566;2023-04-24T03:42:27;10.81;78.67
63202;DHT22;49296;48.188;11.566;2023-04-24T03:44:54;10.77;78.36
63202;DHT22;49296;48.188;11.566;2023-04-24T03:47:20;10.66;79.15
63202;DHT22;49296;48.188;11.566;2023-04-24T03:49:47;10.65;79.23
63202;DHT22;49296;48.188;11.566;2023-04-24T03:52:14;10.72;79.55
63202;DHT22;49296;48.188;11.566;2023-04-24T03:54:40;10.79;79.06
63202;DHT22;49296;48.188;11.566;2023-04-24T03:57:08;10.75;79.27
63202;DHT22;49296;48.188;11.566;2023-04-24T03:59:35;10.79;79.00
63202;DHT22;49296;48.188;11.566;2023-04-24T04:02:01;10.79;79.06
63202;DHT22;49296;48.188;11.566;2023-04-24T04:04:28;10.87;78.69
63202;DHT22;49296;48.188;11.566;2023-04-24T04:06:55;10.87;78.99
63202;DHT22;49296;48.188;11.566;2023-04-24T04:09:21;10.86;78.54
63202;DHT22;49296;48.188;11.566;2023-04-24T04:11:48;10.89;78.60
63202;DHT22;49296;48.188;11.566;2023-04-24T04:14:16;10.89;78.53
63202;DHT22;49296;48.188;11.566;2023-04-24T04:16:43;10.90;78.36
63202;DHT22;49296;48.188;11.566;2023-04-24T04:19:09;10.84;78.58
63202;DHT22;49296;48.188;11.566;2023-04-24T04:21:36;10.87;78.36
63202;DHT22;49296;48.188;11.566;2023-04-24T04:24:03;10.77;78.57
63202;DHT22;49296;48.188;11.566;2023-04-24T04:26:30;10.83;78.28
63202;DHT22;49296;48.188;11.566;2023-04-24T04:28:58;10.89;78.58
63202;DHT22;49296;48.188;11.566;2023-04-24T04:31:27;10.77;78.50
63202;DHT22;49296;48.188;11.566;2023-04-24T04:33:53;10.83;78.02
63202;DHT22;49296;48.188;11.566;2023-04-24T04:36:20;10.83;78.40
63202;DHT22;49296;48.188;11.566;2023-04-24T04:38:47;10.73;78.18
63202;DHT22;49296;48.188;11.566;2023-04-24T04:41:13;10.83;78.06
63202;DHT22;49296;48.188;11.566;2023-04-24T04:43:42;10.75;77.79
63202;DHT22;49296;48.188;11.566;2023-04-24T04:46:08;10.66;78.33
63202;DHT22;49296;48.188;11.566;2023-04-24T04:48:37;10.66;78.06
63202;DHT22;49296;48.188;11.566;2023-04-24T04:51:04;10.75;77.75
63202;DHT22;49296;48.188;11.566;2023-04-24T04:53:31;10.70;78.01
63202;DHT22;49296;48.188;11.566;2023-04-24T04:55:58;10.68;78.24
63202;DHT22;49296;48.188;11.566;2023-04-24T04:58:25;10.66;77.95
63202;DHT22;49296;48.188;11.566;2023-04-24T05:00:51;10.65;78.08
63202;DHT22;49296;48.188;11.566;2023-04-24T05:03:18;10.65;77.95
63202;DHT22;49296;48.188;11.566;2023-04-24T05:05:46;10.61;77.97
63202;DHT22;49296;48.188;11.566;2023-04-24T05:08:13;10.63;77.90
63202;DHT22;49296;48.188;11.566;2023-04-24T05:10:39;10.69;77.56
63202;DHT22;49296;48.188;11.566;2023-04-24T05:13:06;10.63;77.63
63202;DHT22;49296;48.188;11.566;2023-04-24T05:15:33;10.65;77.75
63202;DHT22;49296;48.188;11.566;2023-04-24T05:17:59;10.52;77.75
63202;DHT22;49296;48.188;11.566;2023-04-24T05:20:26;10.52;77.80
63202;DHT22;49296;48.188;11.566;2023-04-24T05:22:54;10.68;77.29
63202;DHT22;49296;48.188;11.566;2023-04-24T05:25:21;10.73;77.15
63202;DHT22;49296;48.188;11.566;2023-04-24T05:27:47;10.68;77.00
63202;DHT22;49296;48.188;11.566;2023-04-24T05:30:14;10.70;77.21
63202;DHT22;49296;48.188;11.566;2023-04-24T05:32:41;10.70;76.75
63202;DHT22;49296;48.188;11.566;2023-04-24T05:35:08;10.75;76.98
63202;DHT22;49296;48.188;11.566;2023-04-24T05:37:34;10.65;76.90
63202;DHT22;49296;48.188;11.566;2023-04-24T05:40:03;10.62;77.00
63202;DHT22;49296;48.188;11.566;2023-04-24T05:42:30;10.69;77.01
63202;DHT22;49296;48.188;11.566;2023-04-24T05:44:57;10.68;76.61
63202;DHT22;49296;48.188;11.566;2023-04-24T05:47:24;10.79;76.11
63202;DHT22;49296;48.188;11.566;2023-04-24T05:49:51;10.72;76.54
63202;DHT22;49296;48.188;11.566;2023-04-24T05:52:18;10.76;76.24
63202;DHT22;49296;48.188;11.566;2023-04-24T05:54:44;10.66;77.03
63202;DHT22;49296;48.188;11.566;2023-04-24T05:57:12;10.75;76.54
63202;DHT22;49296;48.188;11.566;2023-04-24T05:59:40;10.76;76.57
63202;DHT22;49296;48.188;11.566;2023-04-24T06:02:07;10.76;76.50
63202;DHT22;49296;48.188;11.566;2023-04-24T06:04:34;10.89;75.80
63202;DHT22;49296;48.188;11.566;2023-04-24T06:07:00;10.93;75.57
63202;DHT22;49296;48.188;11.566;2023-04-24T06:09:28;10.95;75.28
63202;DHT22;49296;48.188;11.566;2023-04-24T06:11:54;11.01;75.80
63202;DHT22;49296;48.188;11.566;2023-04-24T06:14:23;10.99;75.52
63202;DHT22;49296;48.188;11.566;2023-04-24T06:16:49;11.13;75.98
63202;DHT22;49296;48.188;11.566;2023-04-24T06:19:16;11.21;75.86
63202;DHT22;49296;48.188;11.566;2023-04-24T06:21:43;11.24;75.58
63202;DHT22;49296;48.188;11.566;2023-04-24T06:24:09;11.24;74.89
63202;DHT22;49296;48.188;11.566;2023-04-24T06:26:37;11.32;74.71
63202;DHT22;49296;48.188;11.566;2023-04-24T06:29:03;11.24;74.53
63202;DHT22;49296;48.188;11.566;2023-04-24T06:31:31;11.17;74.80
63202;DHT22;49296;48.188;11.566;2023-04-24T06:34:02;11.30;74.59
63202;DHT22;49296;48.188;11.566;2023-04-24T06:36:28;11.18;74.58
63202;DHT22;49296;48.188;11.566;2023-04-24T06:38:56;11.10;75.08
63202;DHT22;49296;48.188;11.566;2023-04-24T06:41:22;11.23;73.98
63202;DHT22;49296;48.188;11.566;2023-04-24T06:43:50;11.24;74.53
63202;DHT22;49296;48.188;11.566;2023-04-24T06:46:16;11.14;74.50
63202;DHT22;49296;48.188;11.566;2023-04-24T06:48:47;11.24;74.75
63202;DHT22;49296;48.188;11.566;2023-04-24T06:51:14;11.45;73.82
63202;DHT22;49296;48.188;11.566;2023-04-24T06:53:42;11.38;74.19
63202;DHT22;49296;48.188;11.566;2023-04-24T06:56:09;11.51;74.00
63202;DHT22;49296;48.188;11.566;2023-04-24T06:58:36;11.57;73.80
63202;DHT22;49296;48.188;11.566;2023-04-24T07:01:03;11.66;72.73
63202;DHT22;49296;48.188;11.566;2023-04-24T07:03:29;11.65;72.91
63202;DHT22;49296;48.188;11.566;2023-04-24T07:05:57;11.63;73.18
63202;DHT22;49296;48.188;11.566;2023-04-24T07:08:24;11.72;73.16
63202;DHT22;49296;48.188;11.566;2023-04-24T07:10:51;11.83;73.09
63202;DHT22;49296;48.188;11.566;2023-04-24T07:13:18;11.97;72.89
63202;DHT22;49296;48.188;11.566;2023-04-24T07:15:45;11.90;72.08
63202;DHT22;49296;48.188;11.566;2023-04-24T07:18:14;12.04;71.83
63202;DHT22;49296;48.188;11.566;2023-04-24T07:20:41;12.07;71.44
63202;DHT22;49296;48.188;11.566;2023-04-24T07:23:09;11.91;71.43
63202;DHT22;49296;48.188;11.566;2023-04-24T07:25:36;11.97;71.41
63202;DHT22;49296;48.188;11.566;2023-04-24T07:28:04;11.83;71.33
63202;DHT22;49296;48.188;11.566;2023-04-24T07:30:31;11.90;71.05
63202;DHT22;49296;48.188;11.566;2023-04-24T07:32:59;11.93;70.95
63202;DHT22;49296;48.188;11.566;2023-04-24T07:35:26;11.86;70.89
63202;DHT22;49296;48.188;11.566;2023-04-24T07:37:53;11.83;70.55
63202;DHT22;49296;48.188;11.566;2023-04-24T07:40:22;11.83;70.27
63202;DHT22;49296;48.188;11.566;2023-04-24T07:42:49;11.77;71.02
63202;DHT22;49296;48.188;11.566;2023-04-24T07:45:16;11.73;71.03
63202;DHT22;49296;48.188;11.566;2023-04-24T07:47:43;11.66;70.99
63202;DHT22;49296;48.188;11.566;2023-04-24T07:50:11;11.63;70.52
63202;DHT22;49296;48.188;11.566;2023-04-24T07:52:38;11.65;71.13
63202;DHT22;49296;48.188;11.566;2023-04-24T07:55:05;11.59;70.84
63202;DHT22;49296;48.188;11.566;2023-04-24T07:57:34;11.62;70.48
63202;DHT22;49296;48.188;11.566;2023-04-24T08:00:02;11.69;70.06
63202;DHT22;49296;48.188;11.566;2023-04-24T08:02:29;11.66;70.64
63202;DHT22;49296;48.188;11.566;2023-04-24T08:04:56;11.80;70.53
63202;DHT22;49296;48.188;11.566;2023-04-24T08:07:23;11.84;70.57
63202;DHT22;49296;48.188;11.566;2023-04-24T08:09:50;11.91;70.77
63202;DHT22;49296;48.188;11.566;2023-04-24T08:12:17;11.94;70.31
63202;DHT22;49296;48.188;11.566;2023-04-24T08:14:45;11.94;70.31
63202;DHT22;49296;48.188;11.566;2023-04-24T08:17:12;11.87;70.34
63202;DHT22;49296;48.188;11.566;2023-04-24T08:19:40;11.83;70.48
63202;DHT22;49296;48.188;11.566;2023-04-24T08:22:08;11.77;70.39
63202;DHT22;49296;48.188;11.566;2023-04-24T08:24:35;11.82;70.75
63202;DHT22;49296;48.188;11.566;2023-04-24T08:27:02;11.80;71.20
63202;DHT22;49296;48.188;11.566;2023-04-24T08:29:28;11.77;71.50
63202;DHT22;49296;48.188;11.566;2023-04-24T08:31:57;11.75;71.57
63202;DHT22;49296;48.188;11.566;2023-04-24T08:34:24;11.73;70.81
63202;DHT22;49296;48.188;11.566;2023-04-24T08:36:50;11.68;72.08
63202;DHT22;49296;48.188;11.566;2023-04-24T08:39:17;11.45;74.44
63202;DHT22;49296;48.188;11.566;2023-04-24T08:41:44;11.32;74.04
63202;DHT22;49296;48.188;11.566;2023-04-24T08:44:12;11.25;73.26
63202;DHT22;49296;48.188;11.566;2023-04-24T08:46:42;11.27;73.41
63202;DHT22;49296;48.188;11.566;2023-04-24T08:49:11;11.31;70.50
63202;DHT22;49296;48.188;11.566;2023-04-24T08:51:39;11.34;68.84
63202;DHT22;49296;48.188;11.566;2023-04-24T08:54:07;11.24;65.77
63202;DHT22;49296;48.188;11.566;2023-04-24T08:56:36;11.25;65.63
63202;DHT22;49296;48.188;11.566;2023-04-24T08:59:05;11.31;64.69
63202;DHT22;49296;48.188;11.566;2023-04-24T09:01:32;11.31;64.36
63202;DHT22;49296;48.188;11.566;2023-04-24T09:04:02;11.13;64.63
63202;DHT22;49296;48.188;11.566;2023-04-24T09:06:32;11.11;65.16
63202;DHT22;49296;48.188;11.566;2023-04-24T09:09:00;11.11;65.33
63202;DHT22;49296;48.188;11.566;2023-04-24T09:11:30;11.13;66.14
63202;DHT22;49296;48.188;11.566;2023-04-24T09:13:57;11.15;66.17
63202;DHT22;49296;48.188;11.566;2023-04-24T09:16:25;11.10;66.08
63202;DHT22;49296;48.188;11.566;2023-04-24T09:18:53;11.20;65.90
63202;DHT22;49296;48.188;11.566;2023-04-24T09:21:21;11.39;65.58
63202;DHT22;49296;48.188;11.566;2023-04-24T09:23:59;11.51;65.22
63202;DHT22;49296;48.188;11.566;2023-04-24T09:26:29;11.65;65.50
63202;DHT22;49296;48.188;11.566;2023-04-24T09:28:58;11.70;65.25
63202;DHT22;49296;48.188;11.566;2023-04-24T09:31:27;11.62;64.58
63202;DHT22;49296;48.188;11.566;2023-04-24T09:33:54;11.61;64.50
63202;DHT22;49296;48.188;11.566;2023-04-24T09:36:27;11.73;64.55
63202;DHT22;49296;48.188;11.566;2023-04-24T09:38:59;11.93;64.18
63202;DHT22;49296;48.188;11.566;2023-04-24T09:41:26;11.93;63.31
63202;DHT22;49296;48.188;11.566;2023-04-24T09:43:53;12.00;63.48
63202;DHT22;49296;48.188;11.566;2023-04-24T09:46:21;12.07;62.92
63202;DHT22;49296;48.188;11.566;2023-04-24T09:48:55;12.21;62.94
63202;DHT22;49296;48.188;11.566;2023-04-24T09:51:33;12.31;62.30
63202;DHT22;49296;48.188;11.566;2023-04-24T09:54:03;12.24;61.47
63202;DHT22;49296;48.188;11.566;2023-04-24T09:56:33;12.31;61.49
63202;DHT22;49296;48.188;11.566;2023-04-24T09:59:07;12.42;61.32
63202;DHT22;49296;48.188;11.566;2023-04-24T10:01:34;12.48;61.72
63202;DHT22;49296;48.188;11.566;2023-04-24T10:04:01;12.41;61.99
63202;DHT22;49296;48.188;11.566;2023-04-24T10:06:34;12.31;61.20
63202;DHT22;49296;48.188;11.566;2023-04-24T10:09:05;12.39;61.95
63202;DHT22;49296;48.188;11.566;2023-04-24T10:11:32;12.45;61.49
63202;DHT22;49296;48.188;11.566;2023-04-24T10:13:59;12.55;61.41
63202;DHT22;49296;48.188;11.566;2023-04-24T10:16:27;12.50;62.01
63202;DHT22;49296;48.188;11.566;2023-04-24T10:18:54;12.39;61.74
63202;DHT22;49296;48.188;11.566;2023-04-24T10:21:22;12.41;62.05
63202;DHT22;49296;48.188;11.566;2023-04-24T10:23:49;12.29;62.24
63202;DHT22;49296;48.188;11.566;2023-04-24T10:26:19;12.48;62.50
63202;DHT22;49296;48.188;11.566;2023-04-24T10:28:46;12.60;61.88
63202;DHT22;49296;48.188;11.566;2023-04-24T10:31:14;12.63;62.08
63202;DHT22;49296;48.188;11.566;2023-04-24T10:33:42;12.69;61.67
63202;DHT22;49296;48.188;11.566;2023-04-24T10:36:09;12.73;61.63
63202;DHT22;49296;48.188;11.566;2023-04-24T10:38:38;12.83;61.69
63202;DHT22;49296;48.188;11.566;2023-04-24T10:41:08;12.73;62.06
63202;DHT22;49296;48.188;11.566;2023-04-24T10:43:39;12.72;61.70
63202;DHT22;49296;48.188;11.566;2023-04-24T10:46:07;12.70;62.22
63202;DHT22;49296;48.188;11.566;2023-04-24T10:48:35;12.62;62.71
63202;DHT22;49296;48.188;11.566;2023-04-24T10:51:03;12.59;64.55
63202;DHT22;49296;48.188;11.566;2023-04-24T10:53:31;11.63;72.39
63202;DHT22;49296;48.188;11.566;2023-04-24T10:55:58;11.10;75.33
63202;DHT22;49296;48.188;11.566;2023-04-24T10:58:37;10.63;76.86
63202;DHT22;49296;48.188;11.566;2023-04-24T11:01:05;10.44;77.60
63202;DHT22;49296;48.188;11.566;2023-04-24T11:03:34;10.40;76.83
63202;DHT22;49296;48.188;11.566;2023-04-24T11:06:03;10.34;77.47
63202;DHT22;49296;48.188;11.566;2023-04-24T11:08:37;10.46;77.08
63202;DHT22;49296;48.188;11.566;2023-04-24T11:11:09;10.56;76.25
63202;DHT22;49296;48.188;11.566;2023-04-24T11:14:03;10.99;75.84
63202;DHT22;49296;48.188;11.566;2023-04-24T11:16:33;11.36;75.46
63202;DHT22;49296;48.188;11.566;2023-04-24T11:19:01;11.43;73.55
63202;DHT22;49296;48.188;11.566;2023-04-24T11:21:31;11.73;73.92
63202;DHT22;49296;48.188;11.566;2023-04-24T11:23:58;11.90;72.09
63202;DHT22;49296;48.188;11.566;2023-04-24T11:26:25;11.93;71.55
63202;DHT22;49296;48.188;11.566;2023-04-24T11:29:07;11.95;71.94
63202;DHT22;49296;48.188;11.566;2023-04-24T11:31:39;11.98;71.62
63202;DHT22;49296;48.188;11.566;2023-04-24T11:34:10;12.01;71.53
63202;DHT22;49296;48.188;11.566;2023-04-24T11:36:37;12.10;71.92
63202;DHT22;49296;48.188;11.566;2023-04-24T11:39:05;11.90;71.02
63202;DHT22;49296;48.188;11.566;2023-04-24T11:41:32;12.13;69.08
63202;DHT22;49296;48.188;11.566;2023-04-24T11:43:59;12.20;67.80
63202;DHT22;49296;48.188;11.566;2023-04-24T11:46:29;12.29;67.61
63202;DHT22;49296;48.188;11.566;2023-04-24T11:48:57;12.56;67.35
63202;DHT22;49296;48.188;11.566;2023-04-24T11:51:25;12.73;66.69
63202;DHT22;49296;48.188;11.566;2023-04-24T11:53:52;12.75;66.53
63202;DHT22;49296;48.188;11.566;2023-04-24T11:56:19;12.70;65.41
63202;DHT22;49296;48.188;11.566;2023-04-24T11:58:47;12.62;64.83
63202;DHT22;49296;48.188;11.566;2023-04-24T12:01:14;12.89;65.24
63202;DHT22;49296;48.188;11.566;2023-04-24T12:03:47;13.07;64.38
63202;DHT22;49296;48.188;11.566;2023-04-24T12:06:14;12.93;65.35
63202;DHT22;49296;48.188;11.566;2023-04-24T12:08:41;13.00;65.15
63202;DHT22;49296;48.188;11.566;2023-04-24T12:11:08;12.94;64.75
63202;DHT22;49296;48.188;11.566;2023-04-24T12:13:35;12.89;64.05
63202;DHT22;49296;48.188;11.566;2023-04-24T12:16:03;13.18;62.48
63202;DHT22;49296;48.188;11.566;2023-04-24T12:18:31;13.29;62.49
63202;DHT22;49296;48.188;11.566;2023-04-24T12:21:18;13.24;62.06
63202;DHT22;49296;48.188;11.566;2023-04-24T12:23:45;13.45;60.94
63202;DHT22;49296;48.188;11.566;2023-04-24T12:26:12;13.55;61.89
63202;DHT22;49296;48.188;11.566;2023-04-24T12:28:39;13.55;59.66
63202;DHT22;49296;48.188;11.566;2023-04-24T12:31:06;13.45;60.11
63202;DHT22;49296;48.188;11.566;2023-04-24T12:33:34;13.49;59.26
63202;DHT22;49296;48.188;11.566;2023-04-24T12:36:02;13.69;59.19
63202;DHT22;49296;48.188;11.566;2023-04-24T12:38:30;13.63;57.15
63202;DHT22;49296;48.188;11.566;2023-04-24T12:41:06;13.91;56.13
63202;DHT22;49296;48.188;11.566;2023-04-24T12:43:34;13.96;56.64
63202;DHT22;49296;48.188;11.566;2023-04-24T12:46:01;14.26;53.98
63202;DHT22;49296;48.188;11.566;2023-04-24T12:48:29;14.01;54.97
63202;DHT22;49296;48.188;11.566;2023-04-24T12:50:57;14.20;55.50
63202;DHT22;49296;48.188;11.566;2023-04-24T12:53:26;14.05;55.29
63202;DHT22;49296;48.188;11.566;2023-04-24T12:55:56;14.08;56.02
63202;DHT22;49296;48.188;11.566;2023-04-24T12:58:23;14.05;56.58
63202;DHT22;49296;48.188;11.566;2023-04-24T13:00:49;13.76;55.07
63202;DHT22;49296;48.188;11.566;2023-04-24T13:03:17;13.35;54.46
63202;DHT22;49296;48.188;11.566;2023-04-24T13:05:44;13.41;54.81
63202;DHT22;49296;48.188;11.566;2023-04-24T13:08:11;13.38;55.17
63202;DHT22;49296;48.188;11.566;2023-04-24T13:10:38;13.14;57.79
63202;DHT22;49296;48.188;11.566;2023-04-24T13:13:07;12.65;61.52
63202;DHT22;49296;48.188;11.566;2023-04-24T13:15:34;12.70;62.28
63202;DHT22;49296;48.188;11.566;2023-04-24T13:18:01;12.73;62.77
63202;DHT22;49296;48.188;11.566;2023-04-24T13:20:28;12.86;61.08
63202;DHT22;49296;48.188;11.566;2023-04-24T13:22:55;13.48;60.40
63202;DHT22;49296;48.188;11.566;2023-04-24T13:25:21;13.94;58.29
63202;DHT22;49296;48.188;11.566;2023-04-24T13:27:49;14.48;56.55
63202;DHT22;49296;48.188;11.566;2023-04-24T13:30:17;15.14;54.06
63202;DHT22;49296;48.188;11.566;2023-04-24T13:32:44;15.47;52.51
63202;DHT22;49296;48.188;11.566;2023-04-24T13:35:11;15.80;52.41
63202;DHT22;49296;48.188;11.566;2023-04-24T13:37:38;15.87;50.56
63202;DHT22;49296;48.188;11.566;2023-04-24T13:40:05;14.73;51.44
63202;DHT22;49296;48.188;11.566;2023-04-24T13:42:33;14.31;51.64
63202;DHT22;49296;48.188;11.566;2023-04-24T13:44:59;14.04;52.21
63202;DHT22;49296;48.188;11.566;2023-04-24T13:47:28;14.00;52.96
63202;DHT22;49296;48.188;11.566;2023-04-24T13:49:54;14.43;52.21
63202;DHT22;49296;48.188;11.566;2023-04-24T13:52:21;14.79;51.47
63202;DHT22;49296;48.188;11.566;2023-04-24T13:54:48;15.35;49.48
63202;DHT22;49296;48.188;11.566;2023-04-24T13:57:15;15.84;46.71
63202;DHT22;49296;48.188;11.566;2023-04-24T13:59:42;16.05;47.11
63202;DHT22;49296;48.188;11.566;2023-04-24T14:02:10;15.63;47.02
63202;DHT22;49296;48.188;11.566;2023-04-24T14:04:38;15.04;49.49
63202;DHT22;49296;48.188;11.566;2023-04-24T14:07:05;14.88;50.84
63202;DHT22;49296;48.188;11.566;2023-04-24T14:09:33;14.66;51.84
63202;DHT22;49296;48.188;11.566;2023-04-24T14:12:00;14.57;52.09
63202;DHT22;49296;48.188;11.566;2023-04-24T14:14:27;14.28;53.34
63202;DHT22;49296;48.188;11.566;2023-04-24T14:16:55;14.03;54.01
63202;DHT22;49296;48.188;11.566;2023-04-24T14:19:22;13.93;53.38
63202;DHT22;49296;48.188;11.566;2023-04-24T14:21:50;13.98;53.70
63202;DHT22;49296;48.188;11.566;2023-04-24T14:24:18;14.93;51.79
63202;DHT22;49296;48.188;11.566;2023-04-24T14:26:45;15.02;50.61
63202;DHT22;49296;48.188;11.566;2023-04-24T14:29:12;15.27;50.03
63202;DHT22;49296;48.188;11.566;2023-04-24T14:31:39;15.52;49.11
63202;DHT22;49296;48.188;11.566;2023-04-24T14:34:06;15.97;47.81
63202;DHT22;49296;48.188;11.566;2023-04-24T14:36:32;15.91;47.12
63202;DHT22;49296;48.188;11.566;2023-04-24T14:39:01;16.08;47.15
63202;DHT22;49296;48.188;11.566;2023-04-24T14:41:32;15.79;46.86
63202;DHT22;49296;48.188;11.566;2023-04-24T14:44:01;15.86;46.96
63202;DHT22;49296;48.188;11.566;2023-04-24T14:46:28;15.31;47.43
63202;DHT22;49296;48.188;11.566;2023-04-24T14:48:55;15.04;47.37
63202;DHT22;49296;48.188;11.566;2023-04-24T14:51:23;14.87;48.21
63202;DHT22;49296;48.188;11.566;2023-04-24T14:53:50;14.60;48.28
63202;DHT22;49296;48.188;11.566;2023-04-24T14:56:18;15.04;48.09
63202;DHT22;49296;48.188;11.566;2023-04-24T14:58:45;14.97;46.91
63202;DHT22;49296;48.188;11.566;2023-04-24T15:01:12;15.42;46.21
63202;DHT22;49296;48.188;11.566;2023-04-24T15:03:39;15.53;46.32
63202;DHT22;49296;48.188;11.566;2023-04-24T15:06:06;16.05;45.39
63202;DHT22;49296;48.188;11.566;2023-04-24T15:08:33;15.83;44.50
63202;DHT22;49296;48.188;11.566;2023-04-24T15:11:00;15.80;44.68
63202;DHT22;49296;48.188;11.566;2023-04-24T15:13:28;15.46;44.45
63202;DHT22;49296;48.188;11.566;2023-04-24T15:15:55;15.39;45.09
63202;DHT22;49296;48.188;11.566;2023-04-24T15:18:22;15.39;45.57
63202;DHT22;49296;48.188;11.566;2023-04-24T15:20:49;14.91;46.85